createdAt,value
2018-10-01T00:00:44.661Z,92.70
2018-10-01T00:03:14.422Z,92.35
2018-10-01T00:05:44.119Z,92.23
2018-10-01T00:08:12.899Z,92.50
2018-10-01T00:10:41.874Z,92.30
2018-10-01T00:13:11.194Z,92.66
2018-10-01T00:15:40.003Z,92.50
2018-10-01T00:18:08.982Z,92.53
2018-10-01T00:20:43.246Z,92.45
2018-10-01T00:23:12.038Z,92.40
2018-10-01T00:25:41.056Z,92.81
2018-10-01T00:28:09.831Z,92.66
2018-10-01T00:30:38.551Z,92.56
2018-10-01T00:33:07.815Z,92.71
2018-10-01T00:35:36.574Z,92.71
2018-10-01T00:38:06.061Z,93.16
2018-10-01T00:40:34.923Z,92.85
2018-10-01T00:43:03.682Z,92.80
2018-10-01T00:45:32.444Z,93.09
2018-10-01T00:48:01.524Z,92.83
2018-10-01T00:50:30.620Z,92.97
2018-10-01T00:52:59.439Z,93.13
2018-10-01T00:55:28.480Z,92.77
2018-10-01T00:57:58.348Z,92.98
2018-10-01T01:00:29.670Z,92.87
2018-10-01T01:02:58.703Z,92.90
2018-10-01T01:05:27.520Z,92.85
2018-10-01T01:07:56.531Z,92.71
2018-10-01T01:10:25.343Z,92.98
2018-10-01T01:12:54.199Z,93.23
2018-10-01T01:15:22.965Z,93.17
2018-10-01T01:17:52.004Z,93.41
2018-10-01T01:20:21.155Z,93.39
2018-10-01T01:22:50.428Z,93.30
2018-10-01T01:25:19.390Z,93.43
2018-10-01T01:27:48.818Z,93.27
2018-10-01T01:30:18.113Z,93.14
2018-10-01T01:32:47.151Z,93.21
2018-10-01T01:35:15.933Z,92.81
2018-10-01T01:37:44.898Z,92.73
2018-10-01T01:40:13.837Z,93.08
2018-10-01T01:42:43.055Z,92.85
2018-10-01T01:45:11.446Z,93.12
2018-10-01T01:47:40.861Z,92.89
2018-10-01T01:50:11.080Z,92.63
2018-10-01T01:52:39.865Z,93.01
2018-10-01T01:55:08.864Z,92.83
2018-10-01T01:57:37.655Z,93.01
2018-10-01T02:00:07.133Z,93.04
2018-10-01T02:02:35.922Z,92.91
2018-10-01T02:05:05.034Z,92.89
2018-10-01T02:07:33.822Z,92.91
2018-10-01T02:10:02.575Z,92.76
2018-10-01T02:12:32.004Z,92.95
2018-10-01T02:15:00.782Z,93.00
2018-10-01T02:17:29.936Z,93.26
2018-10-01T02:19:58.956Z,93.13
2018-10-01T02:22:27.938Z,93.01
2018-10-01T02:24:56.996Z,93.04
2018-10-01T02:27:25.987Z,93.32
2018-10-01T02:29:55.101Z,93.31
2018-10-01T02:32:24.543Z,93.53
2018-10-01T02:34:53.513Z,93.41
2018-10-01T02:37:22.288Z,93.53
2018-10-01T02:39:51.388Z,93.77
2018-10-01T02:42:20.139Z,93.64
2018-10-01T02:44:49.188Z,93.78
2018-10-01T02:47:18.141Z,93.88
2018-10-01T02:49:47.192Z,94.17
2018-10-01T02:52:21.366Z,94.14
2018-10-01T02:54:50.404Z,94.53
2018-10-01T02:57:19.129Z,94.93
2018-10-01T02:59:48.354Z,95.19
2018-10-01T03:02:17.747Z,95.66
2018-10-01T03:04:46.831Z,95.85
2018-10-01T03:07:16.123Z,95.84
2018-10-01T03:09:44.940Z,95.93
2018-10-01T03:12:14.002Z,96.20
2018-10-01T03:14:42.794Z,96.74
2018-10-01T03:17:11.790Z,97.34
2018-10-01T03:19:41.858Z,97.37
2018-10-01T03:22:11.651Z,98.11
2018-10-01T03:24:41.610Z,97.78
2018-10-01T03:27:11.643Z,97.94
2018-10-01T03:29:41.580Z,98.12
2018-10-01T03:32:10.929Z,98.34
2018-10-01T03:34:39.922Z,97.99
2018-10-01T03:37:09.006Z,98.02
2018-10-01T03:39:37.772Z,98.05
2018-10-01T03:42:07.054Z,97.88
2018-10-01T03:44:35.795Z,97.92
2018-10-01T03:47:04.590Z,97.87
2018-10-01T03:49:33.562Z,97.48
2018-10-01T03:52:02.328Z,97.44
2018-10-01T03:54:31.340Z,97.41
2018-10-01T03:57:00.392Z,96.96
2018-10-01T03:59:29.160Z,96.79
2018-10-01T04:01:57.972Z,96.91
2018-10-01T04:04:26.716Z,96.66
2018-10-01T04:06:55.507Z,96.66
2018-10-01T04:09:24.572Z,96.40
2018-10-01T04:11:53.380Z,96.20
2018-10-01T04:14:22.355Z,96.35
2018-10-01T04:16:51.901Z,96.35
2018-10-01T04:19:20.927Z,96.50
2018-10-01T04:21:49.681Z,96.79
2018-10-01T04:24:18.690Z,97.35
2018-10-01T04:26:47.449Z,98.08
2018-10-01T04:29:16.511Z,98.04
2018-10-01T04:31:46.245Z,98.66
2018-10-01T04:34:15.541Z,99.24
2018-10-01T04:36:44.590Z,99.15
2018-10-01T04:39:14.629Z,99.07
2018-10-01T04:41:43.754Z,99.08
2018-10-01T04:44:12.560Z,98.88
2018-10-01T04:46:42.581Z,98.86
2018-10-01T04:49:12.771Z,98.93
2018-10-01T04:51:43.039Z,99.19
2018-10-01T04:54:12.194Z,99.06
2018-10-01T04:56:41.486Z,98.94
2018-10-01T04:59:10.454Z,98.85
2018-10-01T05:01:39.254Z,98.94
2018-10-01T05:04:08.560Z,98.86
2018-10-01T05:06:37.377Z,99.37
2018-10-01T05:09:08.583Z,99.27
2018-10-01T05:11:37.399Z,99.79
2018-10-01T05:14:06.338Z,99.76
2018-10-01T05:16:35.459Z,100.00
2018-10-01T05:19:05.146Z,100.00
2018-10-01T05:21:34.134Z,100.00
2018-10-01T05:24:02.892Z,99.98
2018-10-01T05:26:32.440Z,99.89
2018-10-01T05:29:01.191Z,99.89
2018-10-01T05:31:29.930Z,99.77
2018-10-01T05:33:58.706Z,99.69
2018-10-01T05:36:27.839Z,99.80
2018-10-01T05:38:56.558Z,99.68
2018-10-01T05:41:25.577Z,99.26
2018-10-01T05:43:54.363Z,99.20
2018-10-01T05:46:23.391Z,99.24
2018-10-01T05:48:52.150Z,99.03
2018-10-01T05:51:20.949Z,98.86
2018-10-01T05:53:49.980Z,99.05
2018-10-01T05:56:18.786Z,99.04
2018-10-01T05:58:47.864Z,98.80
2018-10-01T06:01:16.622Z,99.01
2018-10-01T06:03:46.949Z,98.88
2018-10-01T06:06:15.867Z,98.87
2018-10-01T06:08:44.887Z,98.76
2018-10-01T06:11:13.931Z,98.59
2018-10-01T06:13:42.866Z,98.93
2018-10-01T06:16:11.877Z,98.97
2018-10-01T06:18:40.693Z,99.24
2018-10-01T06:21:09.950Z,99.43
2018-10-01T06:23:38.876Z,99.35
2018-10-01T06:26:07.995Z,99.58
2018-10-01T06:28:37.074Z,99.66
2018-10-01T06:31:06.104Z,100.00
2018-10-01T06:33:34.912Z,100.00
2018-10-01T06:36:03.700Z,100.00
2018-10-01T06:38:32.828Z,100.00
2018-10-01T06:41:01.552Z,100.00
2018-10-01T06:43:30.413Z,100.00
2018-10-01T06:45:59.474Z,100.00
2018-10-01T06:48:28.545Z,100.00
2018-10-01T06:50:57.423Z,100.00
2018-10-01T06:53:26.158Z,100.00
2018-10-01T06:55:55.131Z,100.00
2018-10-01T06:58:23.879Z,100.00
2018-10-01T07:00:53.385Z,100.00
2018-10-01T07:03:22.413Z,100.00
2018-10-01T07:05:51.342Z,100.00
2018-10-01T07:08:20.304Z,100.00
2018-10-01T07:10:49.331Z,100.00
2018-10-01T07:13:18.345Z,100.00
2018-10-01T07:15:47.103Z,100.00
2018-10-01T07:18:15.906Z,100.00
2018-10-01T07:20:45.073Z,100.00
2018-10-01T07:23:14.209Z,100.00
2018-10-01T07:25:43.060Z,100.00
2018-10-01T07:28:11.817Z,100.00
2018-10-01T07:30:40.618Z,100.00
2018-10-01T07:33:09.328Z,99.91
2018-10-01T07:35:38.439Z,99.41
2018-10-01T07:38:07.331Z,98.45
2018-10-01T07:40:36.683Z,98.50
2018-10-01T07:43:05.674Z,98.00
2018-10-01T07:45:35.039Z,97.41
2018-10-01T07:48:04.386Z,98.00
2018-10-01T07:50:33.571Z,97.50
2018-10-01T07:53:02.558Z,97.96
2018-10-01T07:55:31.635Z,97.35
2018-10-01T07:58:00.426Z,96.54
2018-10-01T08:00:29.222Z,97.00
2018-10-01T08:02:58.265Z,97.00
2018-10-01T08:05:27.038Z,96.94
2018-10-01T08:07:56.189Z,97.26
2018-10-01T08:10:24.918Z,96.87
2018-10-01T08:12:54.032Z,97.18
2018-10-01T08:15:23.146Z,96.60
2018-10-01T08:17:51.962Z,97.10
2018-10-01T08:20:21.183Z,97.00
2018-10-01T08:22:49.954Z,94.95
2018-10-01T08:25:18.774Z,94.73
2018-10-01T08:27:47.870Z,93.40
2018-10-01T08:30:16.966Z,93.30
2018-10-01T08:32:45.754Z,92.27
2018-10-01T08:35:15.011Z,91.95
2018-10-01T08:37:43.646Z,89.83
2018-10-01T08:40:12.723Z,89.71
2018-10-01T08:42:42.166Z,89.97
2018-10-01T08:45:11.275Z,89.58
2018-10-01T08:47:40.496Z,89.35
2018-10-01T08:50:20.614Z,88.65
2018-10-01T08:52:56.520Z,88.87
2018-10-01T08:55:25.672Z,89.37
2018-10-01T08:57:54.439Z,89.99
2018-10-01T09:00:23.525Z,90.22
2018-10-01T09:02:52.622Z,90.22
2018-10-01T09:05:22.076Z,90.16
2018-10-01T09:07:51.243Z,90.21
2018-10-01T09:10:20.663Z,89.98
2018-10-01T09:12:49.800Z,88.67
2018-10-01T09:15:18.786Z,89.53
2018-10-01T09:17:47.625Z,89.98
2018-10-01T09:20:16.601Z,91.76
2018-10-01T09:22:46.273Z,93.90
2018-10-01T09:25:15.077Z,91.11
2018-10-01T09:27:44.235Z,94.51
2018-10-01T09:30:13.013Z,97.04
2018-10-01T09:32:41.762Z,99.26
2018-10-01T09:35:10.962Z,95.36
2018-10-01T09:37:39.928Z,97.63
2018-10-01T09:40:08.793Z,98.95
2018-10-01T09:42:38.171Z,99.01
2018-10-01T09:45:06.946Z,100.00
2018-10-01T09:47:35.986Z,100.00
2018-10-01T09:50:04.747Z,100.00
2018-10-01T09:52:33.828Z,99.44
2018-10-01T09:55:03.136Z,99.01
2018-10-01T09:57:31.900Z,99.03
2018-10-01T10:00:00.941Z,99.42
2018-10-01T10:02:29.829Z,100.00
2018-10-01T10:04:58.521Z,100.00
2018-10-01T10:07:27.284Z,100.00
2018-10-01T10:09:56.031Z,100.00
2018-10-01T10:12:25.065Z,100.00
2018-10-01T10:14:53.977Z,100.00
2018-10-01T10:17:22.825Z,100.00
2018-10-01T10:19:51.526Z,100.00
2018-10-01T10:22:20.354Z,100.00
2018-10-01T10:24:50.112Z,100.00
2018-10-01T10:27:19.157Z,97.97
2018-10-01T10:29:48.211Z,96.37
2018-10-01T10:32:17.087Z,95.53
2018-10-01T10:34:46.265Z,94.43
2018-10-01T10:37:15.258Z,96.38
2018-10-01T10:39:44.018Z,92.50
2018-10-01T10:42:13.065Z,91.53
2018-10-01T10:44:41.926Z,88.73
2018-10-01T10:47:10.831Z,89.63
2018-10-01T10:49:39.792Z,87.17
2018-10-01T10:52:08.854Z,88.34
2018-10-01T10:54:37.903Z,90.69
2018-10-01T10:57:07.205Z,91.91
2018-10-01T10:59:35.856Z,92.62
2018-10-01T11:02:05.023Z,90.37
2018-10-01T11:04:34.035Z,90.65
2018-10-01T11:07:02.808Z,93.11
2018-10-01T11:09:31.809Z,93.62
2018-10-01T11:12:00.775Z,91.20
2018-10-01T11:14:29.838Z,88.60
2018-10-01T11:16:58.626Z,88.34
2018-10-01T11:19:27.390Z,86.39
2018-10-01T11:21:56.800Z,83.10
2018-10-01T11:24:26.153Z,81.77
2018-10-01T11:26:54.899Z,79.58
2018-10-01T11:29:24.599Z,76.00
2018-10-01T11:31:53.712Z,76.94
2018-10-01T11:34:22.898Z,75.45
2018-10-01T11:36:51.602Z,72.42
2018-10-01T11:39:20.402Z,72.86
2018-10-01T11:41:49.159Z,67.54
2018-10-01T11:44:18.229Z,69.00
2018-10-01T11:46:47.196Z,67.87
2018-10-01T11:49:16.017Z,67.63
2018-10-01T11:51:44.847Z,69.02
2018-10-01T11:54:13.574Z,70.39
2018-10-01T11:56:42.362Z,71.66
2018-10-01T11:59:11.326Z,72.77
2018-10-01T12:01:40.691Z,72.54
2018-10-01T12:04:09.949Z,70.09
2018-10-01T12:06:39.294Z,71.87
2018-10-01T12:09:10.958Z,70.49
2018-10-01T12:11:40.059Z,72.24
2018-10-01T12:14:10.108Z,73.59
2018-10-01T12:16:38.859Z,72.84
2018-10-01T12:19:08.106Z,71.47
2018-10-01T12:21:36.908Z,72.02
2018-10-01T12:24:05.611Z,71.48
2018-10-01T12:26:34.381Z,70.95
2018-10-01T12:29:03.160Z,67.18
2018-10-01T12:31:38.256Z,65.45
2018-10-01T12:34:07.134Z,67.36
2018-10-01T12:36:36.261Z,67.27
2018-10-01T12:39:06.849Z,67.72
2018-10-01T12:41:35.990Z,66.62
2018-10-01T12:44:05.057Z,66.80
2018-10-01T12:46:33.797Z,72.13
2018-10-01T12:49:02.570Z,72.78
2018-10-01T12:51:31.670Z,68.04
2018-10-01T12:54:00.711Z,66.87
2018-10-01T12:56:29.486Z,68.10
2018-10-01T12:58:58.318Z,69.95
2018-10-01T13:01:27.683Z,69.76
2018-10-01T13:03:56.788Z,68.84
2018-10-01T13:06:25.984Z,67.14
2018-10-01T13:08:54.965Z,67.50
2018-10-01T13:11:24.383Z,67.58
2018-10-01T13:13:53.466Z,68.04
2018-10-01T13:16:22.507Z,67.55
2018-10-01T13:18:51.267Z,65.26
2018-10-01T13:21:20.006Z,65.23
2018-10-01T13:23:49.103Z,62.28
2018-10-01T13:26:17.864Z,66.97
2018-10-01T13:28:46.590Z,71.30
2018-10-01T13:31:15.628Z,75.24
2018-10-01T13:33:44.762Z,77.79
2018-10-01T13:36:13.596Z,79.24
2018-10-01T13:38:42.454Z,79.84
2018-10-01T13:41:11.233Z,79.94
2018-10-01T13:43:40.042Z,81.43
2018-10-01T13:46:09.078Z,81.59
2018-10-01T13:48:38.496Z,80.11
2018-10-01T13:51:07.475Z,78.57
2018-10-01T13:53:36.994Z,76.72
2018-10-01T13:56:06.521Z,74.98
2018-10-01T13:58:35.308Z,75.04
2018-10-01T14:01:04.490Z,68.59
2018-10-01T14:03:33.259Z,67.91
2018-10-01T14:06:02.324Z,68.49
2018-10-01T14:08:31.260Z,62.12
2018-10-01T14:11:00.067Z,61.76
2018-10-01T14:13:28.960Z,61.28
2018-10-01T14:15:57.919Z,63.62
2018-10-01T14:18:26.692Z,64.85
2018-10-01T14:20:55.551Z,69.61
2018-10-01T14:23:24.776Z,74.28
2018-10-01T14:25:55.016Z,78.29
2018-10-01T14:28:23.797Z,79.46
2018-10-01T14:30:53.476Z,81.22
2018-10-01T14:33:22.367Z,82.90
2018-10-01T14:35:51.492Z,82.88
2018-10-01T14:38:20.333Z,82.71
2018-10-01T14:40:49.102Z,84.10
2018-10-01T14:43:17.870Z,83.32
2018-10-01T14:45:46.683Z,82.54
2018-10-01T14:48:15.879Z,81.59
2018-10-01T14:50:45.366Z,81.79
2018-10-01T14:53:14.244Z,81.63
2018-10-01T14:55:43.079Z,82.26
2018-10-01T14:58:12.064Z,81.32
2018-10-01T15:00:40.989Z,81.08
2018-10-01T15:03:09.818Z,80.88
2018-10-01T15:05:38.630Z,81.02
2018-10-01T15:08:07.863Z,81.12
2018-10-01T15:10:36.768Z,82.11
2018-10-01T15:13:05.580Z,81.15
2018-10-01T15:15:34.574Z,80.56
2018-10-01T15:18:03.582Z,81.73
2018-10-01T15:20:32.377Z,80.61
2018-10-01T15:23:01.778Z,79.60
2018-10-01T15:25:30.582Z,79.58
2018-10-01T15:27:59.370Z,78.93
2018-10-01T15:30:28.329Z,79.92
2018-10-01T15:32:57.092Z,80.70
2018-10-01T15:35:25.901Z,80.65
2018-10-01T15:37:55.248Z,80.60
2018-10-01T15:40:24.062Z,80.84
2018-10-01T15:42:53.234Z,80.98
2018-10-01T15:45:21.966Z,81.51
2018-10-01T15:47:51.048Z,81.52
2018-10-01T15:50:20.075Z,81.80
2018-10-01T15:52:49.205Z,81.95
2018-10-01T15:55:18.019Z,83.05
2018-10-01T15:57:47.050Z,83.74
2018-10-01T16:00:16.081Z,85.47
2018-10-01T16:02:44.807Z,86.30
2018-10-01T16:05:13.823Z,86.75
2018-10-01T16:07:42.615Z,87.49
2018-10-01T16:10:11.411Z,88.42
2018-10-01T16:12:40.250Z,88.54
2018-10-01T16:15:09.103Z,88.35
2018-10-01T16:17:37.896Z,88.55
2018-10-01T16:20:07.123Z,88.21
2018-10-01T16:22:35.864Z,88.76
2018-10-01T16:25:04.692Z,88.68
2018-10-01T16:27:33.824Z,88.12
2018-10-01T16:30:02.638Z,87.63
2018-10-01T16:32:31.403Z,85.21
2018-10-01T16:35:00.587Z,85.09
2018-10-01T16:37:29.363Z,84.07
2018-10-01T16:39:58.170Z,84.44
2018-10-01T16:42:27.021Z,84.64
2018-10-01T16:44:55.820Z,84.82
2018-10-01T16:47:24.556Z,84.74
2018-10-01T16:49:53.391Z,85.12
2018-10-01T16:52:22.777Z,85.51
2018-10-01T16:54:52.053Z,85.13
2018-10-01T16:57:20.808Z,85.88
2018-10-01T16:59:49.603Z,86.14
2018-10-01T17:02:18.400Z,86.37
2018-10-01T17:04:47.162Z,86.28
2018-10-01T17:07:16.272Z,86.21
2018-10-01T17:09:45.163Z,86.45
2018-10-01T17:12:14.168Z,86.58
2018-10-01T17:14:42.995Z,86.83
2018-10-01T17:17:11.758Z,87.15
2018-10-01T17:19:40.523Z,87.55
2018-10-01T17:22:09.299Z,87.72
2018-10-01T17:24:38.099Z,88.00
2018-10-01T17:27:07.242Z,88.28
2018-10-01T17:29:36.032Z,88.17
2018-10-01T17:32:04.778Z,88.52
2018-10-01T17:34:33.797Z,88.63
2018-10-01T17:37:02.602Z,88.26
2018-10-01T17:39:31.382Z,88.34
2018-10-01T17:42:00.590Z,88.11
2018-10-01T17:44:29.375Z,88.44
2018-10-01T17:46:58.163Z,88.23
2018-10-01T17:49:26.959Z,88.25
2018-10-01T17:51:55.714Z,88.79
2018-10-01T17:54:25.299Z,89.02
2018-10-01T17:56:54.018Z,89.16
2018-10-01T17:59:22.772Z,88.87
2018-10-01T18:01:51.730Z,89.16
2018-10-01T18:04:20.582Z,88.97
2018-10-01T18:06:49.344Z,89.15
2018-10-01T18:09:19.022Z,89.26
2018-10-01T18:11:48.244Z,89.29
2018-10-01T18:14:17.444Z,89.11
2018-10-01T18:16:47.001Z,89.43
2018-10-01T18:19:16.239Z,89.53
2018-10-01T18:21:45.202Z,89.76
2018-10-01T18:24:14.044Z,90.25
2018-10-01T18:26:43.380Z,91.40
2018-10-01T18:29:12.833Z,92.08
2018-10-01T18:31:41.895Z,91.88
2018-10-01T18:34:10.693Z,92.19
2018-10-01T18:36:39.899Z,92.49
2018-10-01T18:39:18.259Z,93.06
2018-10-01T18:41:48.897Z,93.01
2018-10-01T18:44:18.128Z,92.82
2018-10-01T18:46:48.170Z,92.66
2018-10-01T18:49:17.884Z,93.50
2018-10-01T18:51:47.276Z,94.77
2018-10-01T18:54:16.254Z,96.15
2018-10-01T18:56:45.200Z,96.72
2018-10-01T18:59:14.143Z,96.37
2018-10-01T19:01:43.628Z,96.22
2018-10-01T19:04:12.384Z,96.13
2018-10-01T19:06:41.269Z,96.25
2018-10-01T19:09:14.278Z,96.02
2018-10-01T19:11:43.223Z,95.82
2018-10-01T19:14:12.162Z,95.85
2018-10-01T19:16:41.062Z,95.99
2018-10-01T19:19:10.522Z,96.04
2018-10-01T19:21:40.464Z,96.00
2018-10-01T19:24:09.735Z,95.97
2018-10-01T19:26:38.917Z,95.96
2018-10-01T19:29:08.075Z,95.73
2018-10-01T19:31:36.929Z,95.66
2018-10-01T19:34:05.946Z,95.49
2018-10-01T19:36:34.999Z,95.17
2018-10-01T19:39:05.140Z,95.07
2018-10-01T19:41:33.906Z,95.36
2018-10-01T19:44:03.302Z,95.18
2018-10-01T19:46:32.127Z,95.35
2018-10-01T19:49:00.934Z,95.45
2018-10-01T19:51:29.846Z,95.46
2018-10-01T19:53:58.687Z,95.64
2018-10-01T19:56:27.507Z,95.39
2018-10-01T19:58:56.333Z,95.44
2018-10-01T20:01:25.133Z,95.10
2018-10-01T20:03:53.997Z,94.73
2018-10-01T20:06:23.302Z,94.59
2018-10-01T20:08:52.234Z,94.40
2018-10-01T20:11:21.423Z,94.86
2018-10-01T20:13:50.459Z,94.73
2018-10-01T20:16:19.249Z,94.84
2018-10-01T20:18:48.081Z,95.22
2018-10-01T20:21:17.466Z,95.29
2018-10-01T20:23:46.397Z,95.30
2018-10-01T20:26:15.727Z,95.11
2018-10-01T20:28:45.062Z,94.96
2018-10-01T20:31:13.543Z,94.65
2018-10-01T20:33:42.630Z,94.63
2018-10-01T20:36:11.469Z,94.46
2018-10-01T20:38:40.354Z,94.41
2018-10-01T20:41:09.205Z,94.19
2018-10-01T20:43:38.247Z,94.12
2018-10-01T20:46:07.287Z,94.28
2018-10-01T20:48:36.073Z,94.33
2018-10-01T20:51:05.841Z,94.30
2018-10-01T20:53:34.663Z,94.79
2018-10-01T20:56:03.602Z,94.80
2018-10-01T20:58:32.400Z,95.05
2018-10-01T21:01:01.327Z,95.45
2018-10-01T21:03:30.142Z,96.01
2018-10-01T21:05:58.979Z,96.20
2018-10-01T21:08:27.862Z,96.38
2018-10-01T21:10:56.603Z,96.80
2018-10-01T21:13:25.366Z,98.10
2018-10-01T21:15:54.382Z,97.88
2018-10-01T21:18:23.828Z,98.03
2018-10-01T21:20:53.020Z,98.11
2018-10-01T21:23:22.145Z,98.05
2018-10-01T21:25:51.230Z,97.97
2018-10-01T21:28:20.188Z,98.14
2018-10-01T21:30:48.970Z,97.83
2018-10-01T21:33:17.760Z,97.94
2018-10-01T21:35:46.562Z,97.69
2018-10-01T21:38:15.450Z,97.83
2018-10-01T21:40:44.346Z,97.83
2018-10-01T21:43:13.180Z,97.65
2018-10-01T21:45:42.244Z,97.67
2018-10-01T21:48:11.309Z,97.35
2018-10-01T21:50:40.390Z,97.61
2018-10-01T21:53:09.250Z,97.69
2018-10-01T21:55:37.982Z,97.62
2018-10-01T21:58:06.774Z,97.75
2018-10-01T22:00:41.372Z,97.57
2018-10-01T22:03:10.155Z,97.64
2018-10-01T22:05:38.989Z,97.66
2018-10-01T22:08:08.026Z,97.66
2018-10-01T22:10:36.941Z,97.83
2018-10-01T22:13:05.688Z,97.77
2018-10-01T22:15:39.857Z,97.43
2018-10-01T22:18:09.086Z,97.28
2018-10-01T22:20:37.806Z,97.21
2018-10-01T22:23:06.542Z,97.24
2018-10-01T22:25:35.450Z,97.26
2018-10-01T22:28:04.197Z,97.50
2018-10-01T22:30:33.256Z,97.29
2018-10-01T22:33:02.259Z,97.31
2018-10-01T22:35:31.678Z,97.10
2018-10-01T22:38:00.649Z,97.11
2018-10-01T22:40:29.607Z,97.14
2018-10-01T22:42:58.452Z,96.91
2018-10-01T22:45:27.577Z,96.67
2018-10-01T22:47:56.341Z,96.66
2018-10-01T22:50:25.188Z,96.48
2018-10-01T22:52:54.326Z,96.44
2018-10-01T22:55:23.140Z,96.37
2018-10-01T22:57:51.860Z,96.21
2018-10-01T23:00:21.039Z,96.29
2018-10-01T23:02:50.037Z,96.09
2018-10-01T23:05:19.189Z,96.23
2018-10-01T23:07:47.990Z,96.37
2018-10-01T23:10:16.768Z,96.50
2018-10-01T23:12:45.887Z,96.60
2018-10-01T23:15:14.642Z,96.87
2018-10-01T23:17:43.463Z,97.15
2018-10-01T23:20:12.186Z,97.30
2018-10-01T23:22:41.267Z,97.40
2018-10-01T23:25:10.346Z,97.54
2018-10-01T23:27:39.427Z,98.10
2018-10-01T23:30:08.288Z,98.24
2018-10-01T23:32:37.065Z,98.56
2018-10-01T23:35:05.822Z,99.11
2018-10-01T23:37:34.956Z,99.43
2018-10-01T23:40:03.711Z,99.53
2018-10-01T23:42:32.838Z,99.78
2018-10-01T23:45:01.676Z,100.00
2018-10-01T23:47:30.599Z,100.00
2018-10-01T23:49:59.489Z,100.00
2018-10-01T23:52:28.362Z,100.00
2018-10-01T23:54:57.434Z,100.00
2018-10-01T23:57:26.480Z,100.00
2018-10-01T23:59:55.315Z,100.00
